createdAt,value
2019-04-07T00:01:48.548Z,96686.30
2019-04-07T00:04:17.934Z,96686.26
2019-04-07T00:06:47.695Z,96677.71
2019-04-07T00:09:17.600Z,96678.23
2019-04-07T00:11:46.999Z,96679.30
2019-04-07T00:14:16.729Z,96681.13
2019-04-07T00:16:46.005Z,96683.25
2019-04-07T00:19:15.663Z,96679.86
2019-04-07T00:21:45.555Z,96679.72
2019-04-07T00:24:14.990Z,96682.84
2019-04-07T00:26:44.831Z,96679.72
2019-04-07T00:29:14.450Z,96682.58
2019-04-07T00:31:43.885Z,96678.85
2019-04-07T00:34:13.157Z,96673.75
2019-04-07T00:36:42.409Z,96677.69
2019-04-07T00:39:11.773Z,96678.44
2019-04-07T00:41:41.012Z,96671.03
2019-04-07T00:44:10.286Z,96676.03
2019-04-07T00:46:39.817Z,96672.35
2019-04-07T00:49:09.498Z,96673.62
2019-04-07T00:51:39.037Z,96671.74
2019-04-07T00:54:08.447Z,96672.05
2019-04-07T00:56:37.650Z,96669.66
2019-04-07T00:59:06.925Z,96676.20
2019-04-07T01:01:36.182Z,96667.66
2019-04-07T01:04:05.695Z,96669.29
2019-04-07T01:06:34.956Z,96672.16
2019-04-07T01:09:05.707Z,96667.39
2019-04-07T01:11:35.424Z,96665.25
2019-04-07T01:14:04.955Z,96671.89
2019-04-07T01:16:34.288Z,96667.39
2019-04-07T01:19:03.558Z,96664.75
2019-04-07T01:21:33.099Z,96667.91
2019-04-07T01:24:03.309Z,96672.65
2019-04-07T01:26:32.736Z,96664.33
2019-04-07T01:29:03.004Z,96664.07
2019-04-07T01:31:32.957Z,96665.40
2019-04-07T01:34:02.279Z,96668.31
2019-04-07T01:36:31.676Z,96663.26
2019-04-07T01:39:01.477Z,96661.11
2019-04-07T01:41:35.893Z,96665.30
2019-04-07T01:44:13.633Z,96650.77
2019-04-07T01:47:07.866Z,96651.80
2019-04-07T01:49:56.606Z,96650.11
2019-04-07T01:52:33.878Z,96651.64
2019-04-07T01:55:23.555Z,96653.20
2019-04-07T01:58:07.330Z,96644.67
2019-04-07T02:01:07.666Z,96648.80
2019-04-07T02:03:53.581Z,96645.27
2019-04-07T02:06:50.896Z,96643.94
2019-04-07T02:09:39.310Z,96649.05
2019-04-07T02:12:27.489Z,96643.42
2019-04-07T02:15:21.755Z,96646.66
2019-04-07T02:18:04.300Z,96643.67
2019-04-07T02:21:03.265Z,96652.86
2019-04-07T02:24:00.778Z,96642.42
2019-04-07T02:26:54.503Z,96648.18
2019-04-07T02:29:41.484Z,96638.39
2019-04-07T02:32:32.740Z,96638.01
2019-04-07T02:35:09.738Z,96647.75
2019-04-07T02:38:02.197Z,96645.20
2019-04-07T02:40:53.489Z,96643.56
2019-04-07T02:43:44.768Z,96646.78
2019-04-07T02:46:38.268Z,96650.16
2019-04-07T02:49:30.234Z,96646.47
2019-04-07T02:52:13.052Z,96653.05
2019-04-07T02:54:53.545Z,96654.87
2019-04-07T02:57:42.167Z,96654.36
2019-04-07T03:00:23.095Z,96661.03
2019-04-07T03:03:11.274Z,96660.26
2019-04-07T03:05:56.964Z,96668.41
2019-04-07T03:08:41.414Z,96665.17
2019-04-07T03:11:32.631Z,96668.36
2019-04-07T03:14:15.055Z,96671.70
2019-04-07T03:16:51.785Z,96673.56
2019-04-07T03:19:31.839Z,96682.05
2019-04-07T03:22:35.410Z,96673.00
2019-04-07T03:25:24.376Z,96679.23
2019-04-07T03:28:12.740Z,96673.03
2019-04-07T03:31:10.722Z,96673.03
2019-04-07T03:34:03.039Z,96673.52
2019-04-07T03:37:13.104Z,96673.70
2019-04-07T03:39:22.279Z,96678.69
2019-04-07T03:42:16.397Z,96679.28
2019-04-07T03:45:08.200Z,96675.20
2019-04-07T03:47:50.973Z,96679.74
2019-04-07T03:50:32.276Z,96678.44
2019-04-07T03:53:39.322Z,96688.39
2019-04-07T03:56:21.978Z,96684.06
2019-04-07T03:59:01.447Z,96687.17
2019-04-07T04:02:08.125Z,96679.05
2019-04-07T04:04:45.877Z,96677.11
2019-04-07T04:07:31.476Z,96682.88
2019-04-07T04:10:26.991Z,96682.93
2019-04-07T04:13:01.917Z,96684.50
2019-04-07T04:15:34.533Z,96679.86
2019-04-07T04:18:03.787Z,96679.89
2019-04-07T04:20:33.052Z,96685.82
2019-04-07T04:23:02.354Z,96685.01
2019-04-07T04:25:32.208Z,96688.38
2019-04-07T04:28:01.664Z,96688.50
2019-04-07T04:30:31.901Z,96690.40
2019-04-07T04:33:02.088Z,96696.42
2019-04-07T04:35:32.371Z,96691.55
2019-04-07T04:38:02.035Z,96693.69
2019-04-07T04:40:32.302Z,96693.59
2019-04-07T04:43:02.712Z,96693.29
2019-04-07T04:45:32.263Z,96700.40
2019-04-07T04:48:02.768Z,96696.91
2019-04-07T04:50:32.049Z,96704.73
2019-04-07T04:53:02.059Z,96710.77
2019-04-07T04:55:31.865Z,96712.51
2019-04-07T04:58:02.134Z,96718.14
2019-04-07T05:00:32.144Z,96725.58
2019-04-07T05:03:01.411Z,96723.87
2019-04-07T05:05:30.663Z,96720.44
2019-04-07T05:08:03.622Z,96728.93
2019-04-07T05:10:31.032Z,96733.15
2019-04-07T05:13:00.445Z,96735.34
2019-04-07T05:15:29.779Z,96733.45
2019-04-07T05:17:59.065Z,96737.70
2019-04-07T05:20:28.528Z,96735.44
2019-04-07T05:22:58.589Z,96742.18
2019-04-07T05:25:28.349Z,96748.06
2019-04-07T05:27:57.942Z,96756.94
2019-04-07T05:30:28.224Z,96766.22
2019-04-07T05:32:57.528Z,96769.78
2019-04-07T05:35:27.496Z,96771.86
2019-04-07T05:38:02.833Z,96773.94
2019-04-07T05:40:27.935Z,96765.69
2019-04-07T05:42:57.233Z,96768.73
2019-04-07T05:45:27.042Z,96771.11
2019-04-07T05:47:56.424Z,96779.94
2019-04-07T05:50:27.478Z,96777.88
2019-04-07T05:52:56.720Z,96780.06
2019-04-07T05:55:25.949Z,96789.42
2019-04-07T05:57:55.194Z,96782.35
2019-04-07T06:00:25.092Z,96792.67
2019-04-07T06:02:54.484Z,96796.86
2019-04-07T06:05:24.458Z,96801.61
2019-04-07T06:07:53.883Z,96802.72
2019-04-07T06:10:27.628Z,96803.43
2019-04-07T06:12:54.197Z,96800.30
2019-04-07T06:15:23.495Z,96802.57
2019-04-07T06:17:55.510Z,96795.94
2019-04-07T06:20:23.706Z,96805.03
2019-04-07T06:22:54.447Z,96794.89
2019-04-07T06:25:24.993Z,96796.61
2019-04-07T06:27:54.416Z,96793.14
2019-04-07T06:30:24.088Z,96795.09
2019-04-07T06:32:53.826Z,96800.36
2019-04-07T06:35:23.473Z,96796.84
2019-04-07T06:37:53.116Z,96795.11
2019-04-07T06:40:23.134Z,96784.81
2019-04-07T06:42:52.411Z,96792.92
2019-04-07T06:45:25.678Z,96788.59
2019-04-07T06:47:57.311Z,96792.73
2019-04-07T06:50:47.562Z,96795.81
2019-04-07T06:53:29.054Z,96793.02
2019-04-07T06:56:06.887Z,96793.08
2019-04-07T06:58:58.144Z,96792.42
2019-04-07T07:01:34.954Z,96791.27
2019-04-07T07:04:23.453Z,96785.41
2019-04-07T07:07:11.680Z,96782.55
2019-04-07T07:10:09.541Z,96790.88
2019-04-07T07:12:47.643Z,96784.20
2019-04-07T07:15:28.356Z,96785.94
2019-04-07T07:18:19.952Z,96784.97
2019-04-07T07:21:07.355Z,96784.48
2019-04-07T07:23:39.737Z,96787.86
2019-04-07T07:26:09.808Z,96781.67
2019-04-07T07:28:42.958Z,96785.57
2019-04-07T07:31:10.243Z,96778.53
2019-04-07T07:33:41.605Z,96791.80
2019-04-07T07:36:10.779Z,96787.42
2019-04-07T07:38:40.551Z,96777.61
2019-04-07T07:41:10.916Z,96782.03
2019-04-07T07:43:40.377Z,96788.00
2019-04-07T07:46:09.648Z,96785.36
2019-04-07T07:48:38.979Z,96783.56
2019-04-07T07:51:12.927Z,96785.94
2019-04-07T07:53:39.427Z,96782.47
2019-04-07T07:56:12.124Z,96779.98
2019-04-07T07:58:39.785Z,96778.38
2019-04-07T08:01:11.290Z,96783.64
2019-04-07T08:03:40.507Z,96777.01
2019-04-07T08:06:09.842Z,96774.56
2019-04-07T08:08:39.660Z,96778.97
2019-04-07T08:11:08.982Z,96779.76
2019-04-07T08:13:43.395Z,96776.59
2019-04-07T08:16:09.783Z,96780.20
2019-04-07T08:18:43.539Z,96782.18
2019-04-07T08:21:12.488Z,96776.14
2019-04-07T08:23:44.895Z,96783.92
2019-04-07T08:26:12.549Z,96772.24
2019-04-07T08:28:42.759Z,96767.97
2019-04-07T08:31:12.131Z,96771.45
2019-04-07T08:33:42.098Z,96779.84
2019-04-07T08:36:12.966Z,96783.11
2019-04-07T08:38:42.628Z,96781.02
2019-04-07T08:41:13.377Z,96775.65
2019-04-07T08:43:42.844Z,96776.00
2019-04-07T08:46:12.149Z,96778.02
2019-04-07T08:48:41.466Z,96780.22
2019-04-07T08:51:11.254Z,96779.82
2019-04-07T08:53:43.556Z,96783.03
2019-04-07T08:56:11.944Z,96781.84
2019-04-07T08:58:41.454Z,96778.25
2019-04-07T09:01:10.721Z,96780.76
2019-04-07T09:03:40.071Z,96784.16
2019-04-07T09:06:09.710Z,96772.91
2019-04-07T09:08:39.876Z,96781.53
2019-04-07T09:11:15.777Z,96771.38
2019-04-07T09:13:55.926Z,96771.59
2019-04-07T09:16:52.717Z,96774.10
2019-04-07T09:19:39.770Z,96771.61
2019-04-07T09:22:36.408Z,96767.06
2019-04-07T09:25:28.763Z,96765.78
2019-04-07T09:28:04.578Z,96768.08
2019-04-07T09:30:48.723Z,96771.36
2019-04-07T09:33:36.962Z,96781.34
2019-04-07T09:36:25.392Z,96781.06
2019-04-07T09:39:14.422Z,96774.03
2019-04-07T09:42:03.130Z,96780.11
2019-04-07T09:45:00.477Z,96785.19
2019-04-07T09:48:00.880Z,96789.95
2019-04-07T09:50:45.987Z,96790.69
2019-04-07T09:53:23.776Z,96787.12
2019-04-07T09:56:27.262Z,96789.73
2019-04-07T09:59:29.688Z,96787.97
2019-04-07T10:02:11.447Z,96792.74
2019-04-07T10:05:02.491Z,96787.92
2019-04-07T10:07:54.370Z,96790.55
2019-04-07T10:10:38.319Z,96792.02
2019-04-07T10:13:45.306Z,96788.98
2019-04-07T10:16:25.837Z,96787.71
2019-04-07T10:19:13.099Z,96788.98
2019-04-07T10:22:01.662Z,96782.84
2019-04-07T10:24:59.089Z,96783.30
2019-04-07T10:27:53.253Z,96785.56
2019-04-07T10:30:47.349Z,96796.35
2019-04-07T10:33:34.366Z,96788.36
2019-04-07T10:36:21.627Z,96784.30
2019-04-07T10:39:13.044Z,96793.87
2019-04-07T10:42:13.777Z,96785.70
2019-04-07T10:45:02.197Z,96790.73
2019-04-07T10:47:43.699Z,96786.68
2019-04-07T10:50:34.649Z,96788.92
2019-04-07T10:53:34.237Z,96788.37
2019-04-07T10:56:28.855Z,96795.33
2019-04-07T10:59:17.888Z,96789.88
2019-04-07T11:02:05.854Z,96780.08
2019-04-07T11:05:13.019Z,96786.83
2019-04-07T11:07:48.341Z,96790.08
2019-04-07T11:10:39.138Z,96783.79
2019-04-07T11:13:25.071Z,96781.54
2019-04-07T11:16:16.104Z,96792.70
2019-04-07T11:19:06.026Z,96780.09
2019-04-07T11:21:47.898Z,96780.59
2019-04-07T11:24:37.107Z,96781.75
2019-04-07T11:27:31.271Z,96783.86
2019-04-07T11:30:19.509Z,96785.77
2019-04-07T11:33:03.570Z,96782.33
2019-04-07T11:36:04.116Z,96774.91
2019-04-07T11:38:49.412Z,96777.08
2019-04-07T11:41:52.787Z,96775.22
2019-04-07T11:44:32.269Z,96785.94
2019-04-07T11:47:06.774Z,96776.23
2019-04-07T11:49:58.267Z,96780.39
2019-04-07T11:52:43.927Z,96776.03
2019-04-07T11:55:29.169Z,96775.61
2019-04-07T11:58:34.634Z,96776.28
2019-04-07T12:01:18.853Z,96771.78
2019-04-07T12:04:07.890Z,96773.45
2019-04-07T12:06:52.621Z,96779.98
2019-04-07T12:09:43.699Z,96778.75
2019-04-07T12:12:47.330Z,96779.91
2019-04-07T12:15:30.530Z,96777.84
2019-04-07T12:18:27.875Z,96769.13
2019-04-07T12:21:20.052Z,96769.92
2019-04-07T12:24:10.597Z,96777.69
2019-04-07T12:27:10.855Z,96770.17
2019-04-07T12:29:48.550Z,96775.06
2019-04-07T12:32:35.935Z,96775.06
2019-04-07T12:35:13.394Z,96779.96
2019-04-07T12:38:12.229Z,96777.52
2019-04-07T12:41:14.428Z,96768.58
2019-04-07T12:43:55.218Z,96774.42
2019-04-07T12:46:38.683Z,96768.28
2019-04-07T12:49:26.046Z,96768.73
2019-04-07T12:52:11.757Z,96764.52
2019-04-07T12:55:00.427Z,96763.69
2019-04-07T12:58:04.799Z,96755.12
2019-04-07T13:00:59.913Z,96754.71
2019-04-07T13:04:04.657Z,96760.69
2019-04-07T13:06:52.297Z,96758.46
2019-04-07T13:09:55.699Z,96763.44
2019-04-07T13:12:47.938Z,96757.00
2019-04-07T13:15:31.433Z,96758.28
2019-04-07T13:18:09.699Z,96761.74
2019-04-07T13:21:13.436Z,96761.91
2019-04-07T13:24:10.038Z,96747.60
2019-04-07T13:26:53.945Z,96747.60
2019-04-07T13:29:43.286Z,96755.00
2019-04-07T13:32:46.845Z,96742.91
2019-04-07T13:35:42.507Z,96752.54
2019-04-07T13:38:28.269Z,96747.44
2019-04-07T13:41:18.586Z,96742.02
2019-04-07T13:44:13.036Z,96749.44
2019-04-07T13:47:06.226Z,96746.30
2019-04-07T13:50:02.791Z,96751.36
2019-04-07T13:53:01.508Z,96740.65
2019-04-07T13:55:49.899Z,96739.31
2019-04-07T13:58:37.953Z,96745.97
2019-04-07T14:01:18.502Z,96747.11
2019-04-07T14:04:06.860Z,96743.09
2019-04-07T14:06:54.414Z,96751.02
2019-04-07T14:09:48.602Z,96749.48
2019-04-07T14:12:30.982Z,96750.96
2019-04-07T14:15:17.705Z,96756.20
2019-04-07T14:18:09.011Z,96758.77
2019-04-07T14:21:04.057Z,96762.85
2019-04-07T14:23:42.271Z,96756.89
2019-04-07T14:26:36.598Z,96757.22
2019-04-07T14:29:29.003Z,96761.55
2019-04-07T14:32:20.879Z,96769.25
2019-04-07T14:35:09.384Z,96768.33
2019-04-07T14:37:57.198Z,96764.94
2019-04-07T14:40:54.896Z,96770.74
2019-04-07T14:43:58.299Z,96775.13
2019-04-07T14:46:43.775Z,96763.58
2019-04-07T14:49:35.737Z,96771.56
2019-04-07T14:52:13.375Z,96771.45
2019-04-07T14:55:05.017Z,96773.31
2019-04-07T14:57:51.329Z,96767.47
2019-04-07T15:00:42.834Z,96767.47
2019-04-07T15:03:12.177Z,96764.39
2019-04-07T15:05:43.690Z,96770.33
2019-04-07T15:08:32.915Z,96772.16
2019-04-07T15:11:28.076Z,96778.50
2019-04-07T15:14:00.375Z,96779.31
2019-04-07T15:16:28.615Z,96772.96
2019-04-07T15:18:58.710Z,96778.88
2019-04-07T15:21:28.083Z,96781.59
2019-04-07T15:24:01.878Z,96781.59
2019-04-07T15:26:29.260Z,96780.23
2019-04-07T15:28:59.411Z,96778.86
2019-04-07T15:31:29.598Z,96781.08
2019-04-07T15:34:00.831Z,96780.86
2019-04-07T15:36:30.070Z,96777.55
2019-04-07T15:38:59.629Z,96769.17
2019-04-07T15:41:29.540Z,96785.05
2019-04-07T15:43:58.949Z,96786.47
2019-04-07T15:46:28.976Z,96792.49
2019-04-07T15:48:59.419Z,96786.18
2019-04-07T15:51:29.454Z,96792.43
2019-04-07T15:53:59.427Z,96798.56
2019-04-07T15:56:28.685Z,96798.21
2019-04-07T15:59:00.715Z,96799.52
2019-04-07T16:01:28.927Z,96801.11
2019-04-07T16:03:59.103Z,96803.52
2019-04-07T16:06:28.656Z,96805.76
2019-04-07T16:09:00.220Z,96803.94
2019-04-07T16:11:30.485Z,96807.30
2019-04-07T16:13:59.865Z,96811.78
2019-04-07T16:16:29.538Z,96815.89
2019-04-07T16:18:59.362Z,96815.89
2019-04-07T16:21:29.782Z,96819.73
2019-04-07T16:23:59.482Z,96815.02
2019-04-07T16:26:31.129Z,96816.41
2019-04-07T16:28:59.895Z,96824.44
2019-04-07T16:31:29.863Z,96823.52
2019-04-07T16:34:00.206Z,96828.17
2019-04-07T16:36:30.237Z,96826.45
2019-04-07T16:39:01.914Z,96826.72
2019-04-07T16:41:31.577Z,96830.04
2019-04-07T16:44:04.210Z,96831.00
2019-04-07T16:46:31.957Z,96833.22
2019-04-07T16:49:01.822Z,96832.66
2019-04-07T16:51:33.633Z,96827.88
2019-04-07T16:54:02.734Z,96827.67
2019-04-07T16:56:32.329Z,96834.39
2019-04-07T16:59:02.636Z,96836.19
2019-04-07T17:01:32.350Z,96833.94
2019-04-07T17:04:01.620Z,96840.00
2019-04-07T17:06:35.305Z,96839.13
2019-04-07T17:09:02.492Z,96839.13
2019-04-07T17:11:32.311Z,96843.45
2019-04-07T17:14:02.921Z,96842.69
2019-04-07T17:16:33.457Z,96843.98
2019-04-07T17:19:02.840Z,96847.34
2019-04-07T17:21:32.897Z,96846.64
2019-04-07T17:24:02.342Z,96853.45
2019-04-07T17:26:36.098Z,96852.92
2019-04-07T17:29:03.217Z,96857.38
2019-04-07T17:31:33.496Z,96855.20
2019-04-07T17:34:04.942Z,96860.93
2019-04-07T17:36:34.350Z,96859.06
2019-04-07T17:39:36.898Z,96865.68
2019-04-07T17:42:05.935Z,96865.41
2019-04-07T17:44:54.306Z,96866.03
2019-04-07T17:47:48.703Z,96867.19
2019-04-07T17:50:40.128Z,96861.15
2019-04-07T17:53:32.668Z,96870.39
2019-04-07T17:56:14.747Z,96877.47
2019-04-07T17:59:08.685Z,96875.81
2019-04-07T18:01:52.400Z,96883.61
2019-04-07T18:04:43.848Z,96894.42
2019-04-07T18:07:39.483Z,96892.27
2019-04-07T18:10:39.542Z,96890.92
2019-04-07T18:13:49.932Z,96895.59
2019-04-07T18:16:38.585Z,96890.28
2019-04-07T18:19:21.375Z,96897.83
2019-04-07T18:22:28.585Z,96900.03
2019-04-07T18:25:14.167Z,96905.44
2019-04-07T18:28:01.116Z,96909.27
2019-04-07T18:30:41.885Z,96909.02
2019-04-07T18:33:39.018Z,96913.59
2019-04-07T18:36:25.732Z,96916.03
2019-04-07T18:39:15.953Z,96920.59
2019-04-07T18:41:56.092Z,96930.22
2019-04-07T18:44:54.214Z,96927.30
2019-04-07T18:47:41.593Z,96937.74
2019-04-07T18:50:29.125Z,96931.05
2019-04-07T18:53:11.948Z,96939.34
2019-04-07T18:55:57.932Z,96942.00
2019-04-07T18:58:33.194Z,96940.63
2019-04-07T19:01:22.277Z,96948.41
2019-04-07T19:04:28.145Z,96954.80
2019-04-07T19:07:09.806Z,96951.33
2019-04-07T19:10:07.887Z,96958.53
2019-04-07T19:13:04.988Z,96949.42
2019-04-07T19:15:48.993Z,96949.68
2019-04-07T19:18:34.970Z,96951.30
2019-04-07T19:21:22.538Z,96957.17
2019-04-07T19:24:10.698Z,96950.19
2019-04-07T19:26:54.433Z,96956.04
2019-04-07T19:29:43.473Z,96956.83
2019-04-07T19:32:25.067Z,96958.40
2019-04-07T19:35:13.326Z,96954.64
2019-04-07T19:38:04.785Z,96954.13
2019-04-07T19:41:00.412Z,96959.73
2019-04-07T19:43:43.714Z,96961.84
2019-04-07T19:46:34.148Z,96961.81
2019-04-07T19:49:41.029Z,96959.65
2019-04-07T19:52:41.585Z,96962.84
2019-04-07T19:55:25.862Z,96971.58
2019-04-07T19:58:13.992Z,96965.42
2019-04-07T20:01:06.253Z,96974.74
2019-04-07T20:04:03.592Z,96976.55
2019-04-07T20:06:55.448Z,96969.32
2019-04-07T20:09:48.339Z,96965.58
2019-04-07T20:12:27.220Z,96965.31
2019-04-07T20:15:10.301Z,96967.44
2019-04-07T20:18:12.448Z,96965.29
2019-04-07T20:20:58.201Z,96969.17
2019-04-07T20:23:45.336Z,96961.55
2019-04-07T20:26:34.783Z,96963.59
2019-04-07T20:29:34.150Z,96960.34
2019-04-07T20:32:23.349Z,96965.38
2019-04-07T20:35:11.543Z,96967.45
2019-04-07T20:38:01.938Z,96970.89
2019-04-07T20:40:47.866Z,96974.41
2019-04-07T20:43:25.916Z,96974.41
2019-04-07T20:46:14.175Z,96976.01
2019-04-07T20:49:11.657Z,96979.19
2019-04-07T20:52:02.665Z,96975.97
2019-04-07T20:54:44.392Z,96974.04
2019-04-07T20:57:27.313Z,96976.19
2019-04-07T21:00:16.595Z,96969.77
2019-04-07T21:03:14.382Z,96967.33
2019-04-07T21:05:46.232Z,96965.22
2019-04-07T21:08:23.326Z,96959.03
2019-04-07T21:11:15.210Z,96952.32
2019-04-07T21:14:18.705Z,96958.00
2019-04-07T21:16:59.338Z,96954.72
2019-04-07T21:19:54.339Z,96952.57
2019-04-07T21:22:36.971Z,96954.69
2019-04-07T21:25:31.879Z,96957.27
2019-04-07T21:28:11.545Z,96955.67
2019-04-07T21:31:05.653Z,96951.06
2019-04-07T21:34:12.346Z,96958.81
2019-04-07T21:37:00.688Z,96963.06
2019-04-07T21:40:06.988Z,96970.15
2019-04-07T21:42:54.513Z,96973.02
2019-04-07T21:45:47.160Z,96974.56
2019-04-07T21:48:32.000Z,96980.53
2019-04-07T21:51:10.697Z,96980.02
2019-04-07T21:53:51.861Z,96976.90
2019-04-07T21:56:43.098Z,96982.54
2019-04-07T21:59:33.614Z,96985.38
2019-04-07T22:02:14.233Z,96987.77
2019-04-07T22:04:50.679Z,96997.55
2019-04-07T22:07:33.630Z,96987.61
2019-04-07T22:10:05.280Z,96992.63
2019-04-07T22:12:34.649Z,96992.78
2019-04-07T22:15:05.129Z,96998.52
2019-04-07T22:17:37.199Z,96994.03
2019-04-07T22:20:06.236Z,97002.30
2019-04-07T22:22:35.509Z,97000.70
2019-04-07T22:25:07.053Z,96992.61
2019-04-07T22:27:36.042Z,96991.11
2019-04-07T22:30:09.189Z,96998.65
2019-04-07T22:32:38.521Z,96996.31
2019-04-07T22:35:08.477Z,97000.89
2019-04-07T22:37:37.789Z,97000.89
2019-04-07T22:40:13.608Z,97006.78
2019-04-07T22:42:45.476Z,97009.36
2019-04-07T22:45:14.930Z,97015.77
2019-04-07T22:47:44.551Z,97016.53
2019-04-07T22:50:13.874Z,97023.94
2019-04-07T22:52:47.354Z,97024.56
2019-04-07T22:55:14.368Z,97021.22
2019-04-07T22:57:44.156Z,97017.37
2019-04-07T23:00:21.307Z,97020.27
2019-04-07T23:02:50.675Z,97017.27
2019-04-07T23:05:19.936Z,97022.66
2019-04-07T23:07:50.084Z,97017.34
2019-04-07T23:10:19.814Z,97016.45
2019-04-07T23:12:49.863Z,97030.75
2019-04-07T23:15:19.185Z,97031.31
2019-04-07T23:17:49.167Z,97039.52
2019-04-07T23:20:19.884Z,97040.05
2019-04-07T23:22:49.968Z,97040.05
2019-04-07T23:25:19.987Z,97039.88
2019-04-07T23:27:50.488Z,97041.13
2019-04-07T23:30:23.925Z,97042.97
2019-04-07T23:32:53.510Z,97046.25
2019-04-07T23:35:22.899Z,97043.02
2019-04-07T23:37:52.153Z,97040.28
2019-04-07T23:40:21.384Z,97042.50
2019-04-07T23:42:50.935Z,97040.05
2019-04-07T23:45:20.364Z,97039.91
2019-04-07T23:47:50.421Z,97044.56
2019-04-07T23:50:19.738Z,97044.18
2019-04-07T23:52:49.763Z,97042.19
2019-04-07T23:55:20.383Z,97043.34
2019-04-07T23:57:49.646Z,97031.91
